createdAt,value
2019-06-20T00:01:30.973Z,94.10
2019-06-20T00:04:03.561Z,94.20
2019-06-20T00:06:33.454Z,94.20
2019-06-20T00:09:03.495Z,94.60
2019-06-20T00:11:34.373Z,94.20
2019-06-20T00:14:04.156Z,94.20
2019-06-20T00:16:33.799Z,94.20
2019-06-20T00:19:03.648Z,94.30
2019-06-20T00:21:45.862Z,94.40
2019-06-20T00:24:15.579Z,94.40
2019-06-20T00:26:46.596Z,94.20
2019-06-20T00:29:16.291Z,94.30
2019-06-20T00:31:46.081Z,94.30
2019-06-20T00:34:15.801Z,94.40
2019-06-20T00:36:47.067Z,94.30
2019-06-20T00:39:16.809Z,94.40
2019-06-20T00:41:46.488Z,94.40
2019-06-20T00:44:16.279Z,94.50
2019-06-20T00:46:45.981Z,94.50
2019-06-20T00:49:15.771Z,94.40
2019-06-20T00:51:47.103Z,94.30
2019-06-20T00:54:18.967Z,94.40
2019-06-20T00:56:48.477Z,94.40
2019-06-20T00:59:18.318Z,94.40
2019-06-20T01:01:49.629Z,94.40
2019-06-20T01:04:19.649Z,94.30
2019-06-20T01:06:49.410Z,94.40
2019-06-20T01:09:20.512Z,94.30
2019-06-20T01:11:50.343Z,94.30
2019-06-20T01:14:20.201Z,94.30
2019-06-20T01:16:50.150Z,94.40
2019-06-20T01:19:20.025Z,94.40
2019-06-20T01:21:49.827Z,94.50
2019-06-20T01:24:19.808Z,94.50
2019-06-20T01:26:49.996Z,94.40
2019-06-20T01:29:19.869Z,94.40
2019-06-20T01:31:50.055Z,94.50
2019-06-20T01:34:19.884Z,94.40
2019-06-20T01:36:52.754Z,94.50
2019-06-20T01:39:24.127Z,94.40
2019-06-20T01:41:54.012Z,94.80
2019-06-20T01:44:25.025Z,94.50
2019-06-20T01:46:54.865Z,94.50
2019-06-20T01:49:24.548Z,94.50
2019-06-20T01:51:54.287Z,94.50
2019-06-20T01:54:24.067Z,94.40
2019-06-20T01:56:53.874Z,94.50
2019-06-20T01:59:23.550Z,94.40
2019-06-20T02:01:53.231Z,94.30
2019-06-20T02:04:24.896Z,94.30
2019-06-20T02:06:56.399Z,94.30
2019-06-20T02:09:26.224Z,94.30
2019-06-20T02:11:59.623Z,94.20
2019-06-20T02:14:33.495Z,94.20
2019-06-20T02:17:03.648Z,94.20
2019-06-20T02:19:33.632Z,94.10
2019-06-20T02:22:04.968Z,94.00
2019-06-20T02:24:34.784Z,94.00
2019-06-20T02:27:04.873Z,94.00
2019-06-20T02:29:34.570Z,94.00
2019-06-20T02:32:04.393Z,94.10
2019-06-20T02:34:34.249Z,93.90
2019-06-20T02:37:05.509Z,93.80
2019-06-20T02:39:35.226Z,93.70
2019-06-20T02:42:05.232Z,93.60
2019-06-20T02:44:35.125Z,93.70
2019-06-20T02:47:04.996Z,93.50
2019-06-20T02:49:35.422Z,93.50
2019-06-20T02:52:20.609Z,93.40
2019-06-20T02:54:50.460Z,93.50
2019-06-20T02:57:20.173Z,93.40
2019-06-20T02:59:50.000Z,93.50
2019-06-20T03:02:19.655Z,93.40
2019-06-20T03:04:52.416Z,93.40
2019-06-20T03:07:22.214Z,93.50
2019-06-20T03:09:52.018Z,93.50
2019-06-20T03:12:23.221Z,93.50
2019-06-20T03:14:53.107Z,93.50
2019-06-20T03:17:22.970Z,93.70
2019-06-20T03:19:54.511Z,93.40
2019-06-20T03:22:25.898Z,93.50
2019-06-20T03:24:55.893Z,93.40
2019-06-20T03:27:26.013Z,93.50
2019-06-20T03:29:55.851Z,93.30
2019-06-20T03:32:25.858Z,93.60
2019-06-20T03:34:57.285Z,93.50
2019-06-20T03:37:27.094Z,93.40
2019-06-20T03:39:57.033Z,93.60
2019-06-20T03:42:26.844Z,93.90
2019-06-20T03:45:02.462Z,93.40
2019-06-20T03:47:32.409Z,93.80
2019-06-20T03:50:02.233Z,93.40
2019-06-20T03:52:32.542Z,93.40
2019-06-20T03:55:02.777Z,93.30
2019-06-20T03:57:32.720Z,93.40
2019-06-20T04:00:02.911Z,93.40
2019-06-20T04:02:32.574Z,93.40
2019-06-20T04:05:02.365Z,93.80
2019-06-20T04:07:32.406Z,93.40
2019-06-20T04:10:02.211Z,93.50
2019-06-20T04:12:32.049Z,93.50
2019-06-20T04:15:15.078Z,93.70
2019-06-20T04:17:34.755Z,93.50
2019-06-20T04:20:06.221Z,93.50
2019-06-20T04:22:36.424Z,93.50
2019-06-20T04:25:07.597Z,93.60
2019-06-20T04:27:37.428Z,93.50
2019-06-20T04:30:08.654Z,93.60
2019-06-20T04:32:38.603Z,93.50
2019-06-20T04:35:09.845Z,93.50
2019-06-20T04:37:39.702Z,93.30
2019-06-20T04:40:09.738Z,93.40
2019-06-20T04:42:39.931Z,93.30
2019-06-20T04:45:17.530Z,93.40
2019-06-20T04:47:47.983Z,93.40
2019-06-20T04:50:17.862Z,93.20
2019-06-20T04:52:50.471Z,93.20
2019-06-20T04:55:21.666Z,93.10
2019-06-20T04:57:51.564Z,92.90
2019-06-20T05:00:21.388Z,92.90
2019-06-20T05:02:51.147Z,92.80
2019-06-20T05:05:21.141Z,92.90
2019-06-20T05:07:51.042Z,93.00
2019-06-20T05:10:21.589Z,92.80
2019-06-20T05:12:55.845Z,92.80
2019-06-20T05:15:25.184Z,92.60
2019-06-20T05:17:54.979Z,92.80
2019-06-20T05:20:24.976Z,92.80
2019-06-20T05:22:54.850Z,92.70
2019-06-20T05:25:26.106Z,92.80
2019-06-20T05:27:56.092Z,92.70
2019-06-20T05:30:26.440Z,92.70
2019-06-20T05:32:59.330Z,92.60
2019-06-20T05:35:29.152Z,92.60
2019-06-20T05:38:03.309Z,92.40
2019-06-20T05:40:37.246Z,92.20
2019-06-20T05:43:08.687Z,91.80
2019-06-20T05:45:39.571Z,91.80
2019-06-20T05:48:09.622Z,91.50
2019-06-20T05:50:41.606Z,90.90
2019-06-20T05:53:13.211Z,91.00
2019-06-20T05:55:44.584Z,91.10
2019-06-20T05:58:15.382Z,90.90
2019-06-20T06:00:46.391Z,90.70
2019-06-20T06:03:18.985Z,90.30
2019-06-20T06:05:50.237Z,90.30
2019-06-20T06:08:20.254Z,89.60
2019-06-20T06:10:50.034Z,88.10
2019-06-20T06:13:22.396Z,87.60
2019-06-20T06:15:53.724Z,86.90
2019-06-20T06:18:23.604Z,88.00
2019-06-20T06:20:55.448Z,87.80
2019-06-20T06:23:25.594Z,87.10
2019-06-20T06:25:55.605Z,86.90
2019-06-20T06:28:25.738Z,86.70
2019-06-20T06:30:55.565Z,86.20
2019-06-20T06:33:29.008Z,85.70
2019-06-20T06:35:58.838Z,85.80
2019-06-20T06:38:30.109Z,86.60
2019-06-20T06:40:59.864Z,84.60
2019-06-20T06:43:29.947Z,84.20
2019-06-20T06:46:01.254Z,83.50
2019-06-20T06:48:31.465Z,84.50
2019-06-20T06:51:04.486Z,82.10
2019-06-20T06:53:39.182Z,82.90
2019-06-20T06:56:09.437Z,83.50
2019-06-20T06:58:40.921Z,82.90
2019-06-20T07:01:10.602Z,83.20
2019-06-20T07:03:40.395Z,82.20
2019-06-20T07:06:12.695Z,81.50
2019-06-20T07:08:42.557Z,82.00
2019-06-20T07:11:13.186Z,81.70
2019-06-20T07:13:43.260Z,82.80
2019-06-20T07:16:16.547Z,81.80
2019-06-20T07:18:46.554Z,81.80
2019-06-20T07:21:16.354Z,81.90
2019-06-20T07:23:48.025Z,82.60
2019-06-20T07:26:17.669Z,81.60
2019-06-20T07:28:47.662Z,83.10
2019-06-20T07:31:21.199Z,80.90
2019-06-20T07:33:50.987Z,80.60
2019-06-20T07:36:20.861Z,79.50
2019-06-20T07:38:50.767Z,80.40
2019-06-20T07:41:20.539Z,79.90
2019-06-20T07:43:50.404Z,79.00
2019-06-20T07:46:20.132Z,80.00
2019-06-20T07:48:50.060Z,79.80
2019-06-20T07:51:19.837Z,77.70
2019-06-20T07:53:49.920Z,79.70
2019-06-20T07:56:20.749Z,79.50
2019-06-20T07:58:51.017Z,77.50
2019-06-20T08:01:22.109Z,75.00
2019-06-20T08:03:51.957Z,76.50
2019-06-20T08:06:22.257Z,77.30
2019-06-20T08:08:52.078Z,76.80
2019-06-20T08:11:21.748Z,77.00
2019-06-20T08:13:53.097Z,76.20
2019-06-20T08:16:26.039Z,76.30
2019-06-20T08:18:57.426Z,76.90
2019-06-20T08:21:27.311Z,74.40
2019-06-20T08:23:57.696Z,72.80
2019-06-20T08:26:27.573Z,73.30
2019-06-20T08:29:10.160Z,71.60
2019-06-20T08:31:28.836Z,71.70
2019-06-20T08:33:59.241Z,72.00
2019-06-20T08:36:32.209Z,72.60
2019-06-20T08:39:02.615Z,72.10
2019-06-20T08:41:33.532Z,70.90
2019-06-20T08:44:03.923Z,70.20
2019-06-20T08:46:34.086Z,68.90
2019-06-20T08:49:05.692Z,70.20
2019-06-20T08:51:35.591Z,69.50
2019-06-20T08:54:05.482Z,69.00
2019-06-20T08:56:35.450Z,69.80
2019-06-20T08:59:05.606Z,70.10
2019-06-20T09:01:37.626Z,69.40
2019-06-20T09:04:08.072Z,66.00
2019-06-20T09:06:37.782Z,67.50
2019-06-20T09:09:08.085Z,67.70
2019-06-20T09:11:37.726Z,68.50
2019-06-20T09:14:07.635Z,67.80
2019-06-20T09:16:37.551Z,67.10
2019-06-20T09:19:07.386Z,65.30
2019-06-20T09:21:39.016Z,65.50
2019-06-20T09:24:11.489Z,64.30
2019-06-20T09:26:42.395Z,63.90
2019-06-20T09:29:12.082Z,64.50
2019-06-20T09:31:43.347Z,63.80
2019-06-20T09:34:13.166Z,63.70
2019-06-20T09:36:42.963Z,63.90
2019-06-20T09:39:12.967Z,64.30
2019-06-20T09:41:42.964Z,62.90
2019-06-20T09:44:13.148Z,62.00
2019-06-20T09:46:42.889Z,59.90
2019-06-20T09:49:34.911Z,61.60
2019-06-20T09:52:06.037Z,60.70
2019-06-20T09:54:38.822Z,60.80
2019-06-20T09:57:10.151Z,60.20
2019-06-20T09:59:55.899Z,61.20
2019-06-20T10:02:14.221Z,63.00
2019-06-20T10:04:43.930Z,63.50
2019-06-20T10:07:13.709Z,63.70
2019-06-20T10:09:43.675Z,62.70
2019-06-20T10:12:13.498Z,62.50
2019-06-20T10:14:43.289Z,62.40
2019-06-20T10:17:13.167Z,61.10
2019-06-20T10:20:03.894Z,60.60
2019-06-20T10:22:32.903Z,61.90
2019-06-20T10:25:03.006Z,59.10
2019-06-20T10:27:33.687Z,62.00
2019-06-20T10:30:14.345Z,62.10
2019-06-20T10:32:36.690Z,62.30
2019-06-20T10:35:07.746Z,62.10
2019-06-20T10:37:37.591Z,62.10
2019-06-20T10:40:09.964Z,62.70
2019-06-20T10:42:40.387Z,62.10
2019-06-20T10:45:10.886Z,62.10
2019-06-20T10:47:40.575Z,63.10
2019-06-20T10:50:11.055Z,62.30
2019-06-20T10:52:41.014Z,62.50
2019-06-20T10:55:13.091Z,62.90
2019-06-20T10:57:43.364Z,62.30
2019-06-20T11:00:30.371Z,61.80
2019-06-20T11:02:49.122Z,62.20
2019-06-20T11:05:21.002Z,61.50
2019-06-20T11:07:51.200Z,61.40
2019-06-20T11:10:21.597Z,61.70
2019-06-20T11:12:55.681Z,62.10
2019-06-20T11:15:23.604Z,62.60
2019-06-20T11:17:56.445Z,61.90
2019-06-20T11:20:25.803Z,61.40
2019-06-20T11:22:55.643Z,61.70
2019-06-20T11:25:25.798Z,62.30
2019-06-20T11:28:16.321Z,62.40
2019-06-20T11:30:58.096Z,62.90
2019-06-20T11:36:21.378Z,64.70
2019-06-20T11:38:53.859Z,64.70
2019-06-20T11:41:25.679Z,64.60
2019-06-20T11:43:58.975Z,64.40
2019-06-20T11:46:30.763Z,64.80
2019-06-20T11:49:02.975Z,64.80
2019-06-20T11:51:34.887Z,64.60
2019-06-20T11:54:07.083Z,64.90
2019-06-20T11:59:47.551Z,64.60
2019-06-20T12:02:19.152Z,64.00
2019-06-20T12:04:50.022Z,62.20
2019-06-20T12:07:20.472Z,60.80
2019-06-20T12:09:51.139Z,59.70
2019-06-20T12:12:20.846Z,60.20
2019-06-20T12:14:50.461Z,57.20
2019-06-20T12:20:10.194Z,55.70
2019-06-20T12:25:50.036Z,53.20
2019-06-20T12:28:38.988Z,55.70
2019-06-20T12:31:19.851Z,55.80
2019-06-20T12:33:50.030Z,55.30
2019-06-20T12:36:20.775Z,55.20
2019-06-20T12:42:03.093Z,54.20
2019-06-20T12:44:34.665Z,54.90
2019-06-20T12:47:04.315Z,55.60
2019-06-20T12:49:34.097Z,55.30
2019-06-20T12:52:08.377Z,55.90
2019-06-20T12:54:38.172Z,55.40
2019-06-20T12:57:09.436Z,55.50
2019-06-20T12:59:40.706Z,55.50
2019-06-20T13:02:15.517Z,55.80
2019-06-20T13:04:46.258Z,56.00
2019-06-20T13:07:15.949Z,56.40
2019-06-20T13:09:48.366Z,56.00
2019-06-20T13:12:20.896Z,56.40
2019-06-20T13:14:50.892Z,56.10
2019-06-20T13:17:20.720Z,55.90
2019-06-20T13:19:50.379Z,56.60
2019-06-20T13:22:20.636Z,56.80
2019-06-20T13:24:50.804Z,56.80
2019-06-20T13:27:20.361Z,57.40
2019-06-20T13:29:50.041Z,58.10
2019-06-20T13:32:19.656Z,56.80
2019-06-20T13:34:49.624Z,57.60
2019-06-20T13:37:19.974Z,58.00
2019-06-20T13:39:50.158Z,58.20
2019-06-20T13:42:19.924Z,58.60
2019-06-20T13:44:50.812Z,59.10
2019-06-20T13:47:20.616Z,59.50
2019-06-20T13:49:54.549Z,59.40
2019-06-20T13:52:29.830Z,60.00
2019-06-20T13:55:01.434Z,60.70
2019-06-20T13:57:30.531Z,61.20
2019-06-20T14:00:03.753Z,61.50
2019-06-20T14:02:33.761Z,62.10
2019-06-20T14:05:04.016Z,61.90
2019-06-20T14:07:33.574Z,62.50
2019-06-20T14:10:04.564Z,62.80
2019-06-20T14:12:35.335Z,61.80
2019-06-20T14:15:05.398Z,60.60
2019-06-20T14:17:34.995Z,59.60
2019-06-20T14:20:08.292Z,60.10
2019-06-20T14:22:37.390Z,59.60
2019-06-20T14:25:08.148Z,60.00
2019-06-20T14:27:40.128Z,59.60
2019-06-20T14:30:11.216Z,59.80
2019-06-20T14:32:43.366Z,60.00
2019-06-20T14:35:13.483Z,59.70
2019-06-20T14:37:44.285Z,61.20
2019-06-20T14:40:14.465Z,60.20
2019-06-20T14:42:44.548Z,59.70
2019-06-20T14:45:15.977Z,59.80
2019-06-20T14:47:47.354Z,59.50
2019-06-20T14:50:17.494Z,58.90
2019-06-20T14:52:48.533Z,59.70
2019-06-20T14:55:18.826Z,59.60
2019-06-20T14:57:50.273Z,59.50
2019-06-20T15:00:20.841Z,57.30
2019-06-20T15:02:54.595Z,57.80
2019-06-20T15:05:22.348Z,58.90
2019-06-20T15:07:53.751Z,59.70
2019-06-20T15:10:23.243Z,60.50
2019-06-20T15:12:53.768Z,60.20
2019-06-20T15:15:24.869Z,60.80
2019-06-20T15:17:56.305Z,61.50
2019-06-20T15:20:25.808Z,62.50
2019-06-20T15:22:56.658Z,61.80
2019-06-20T15:25:29.323Z,61.90
2019-06-20T15:28:05.316Z,60.70
2019-06-20T15:30:35.070Z,60.90
2019-06-20T15:33:09.975Z,61.60
2019-06-20T15:35:38.292Z,61.30
2019-06-20T15:38:09.822Z,61.30
2019-06-20T15:40:39.718Z,61.20
2019-06-20T15:43:09.456Z,60.20
2019-06-20T15:45:39.059Z,59.80
2019-06-20T15:48:08.649Z,59.50
2019-06-20T15:50:38.337Z,59.80
2019-06-20T15:53:07.918Z,60.00
2019-06-20T15:55:37.545Z,60.00
2019-06-20T15:58:07.141Z,61.10
2019-06-20T16:00:36.814Z,61.00
2019-06-20T16:03:10.224Z,60.40
2019-06-20T16:05:40.673Z,60.30
2019-06-20T16:08:10.515Z,60.70
2019-06-20T16:10:40.272Z,60.40
2019-06-20T16:13:09.978Z,60.00
2019-06-20T16:15:39.577Z,59.00
2019-06-20T16:18:09.253Z,59.60
2019-06-20T16:20:39.022Z,59.00
2019-06-20T16:23:13.076Z,58.90
2019-06-20T16:25:42.775Z,59.20
2019-06-20T16:28:13.072Z,59.60
2019-06-20T16:30:43.796Z,59.70
2019-06-20T16:33:24.838Z,60.00
2019-06-20T16:35:45.521Z,59.80
2019-06-20T16:38:15.157Z,61.00
2019-06-20T16:40:49.192Z,61.10
2019-06-20T16:43:19.005Z,62.30
2019-06-20T16:45:48.638Z,62.30
2019-06-20T16:48:18.365Z,63.00
2019-06-20T16:50:50.971Z,63.00
2019-06-20T16:53:21.032Z,62.10
2019-06-20T16:55:50.753Z,62.70
2019-06-20T16:58:20.411Z,62.70
2019-06-20T17:00:50.194Z,62.90
2019-06-20T17:03:19.893Z,62.70
2019-06-20T17:05:51.147Z,62.60
2019-06-20T17:08:21.046Z,62.00
2019-06-20T17:10:52.299Z,62.40
2019-06-20T17:13:22.120Z,62.80
2019-06-20T17:15:58.913Z,62.90
2019-06-20T17:18:28.521Z,62.40
2019-06-20T17:20:59.200Z,62.90
2019-06-20T17:23:28.245Z,63.80
2019-06-20T17:26:00.704Z,63.80
2019-06-20T17:28:29.230Z,64.00
2019-06-20T17:31:00.404Z,64.30
2019-06-20T17:33:30.060Z,63.80
2019-06-20T17:35:59.664Z,63.50
2019-06-20T17:38:29.220Z,62.70
2019-06-20T17:40:58.852Z,63.70
2019-06-20T17:43:28.432Z,63.70
2019-06-20T17:46:00.182Z,63.60
2019-06-20T17:48:30.876Z,63.40
2019-06-20T17:51:00.739Z,63.00
2019-06-20T17:53:32.805Z,63.30
2019-06-20T17:56:02.750Z,63.00
2019-06-20T17:58:51.785Z,63.30
2019-06-20T18:01:22.812Z,63.90
2019-06-20T18:03:52.623Z,64.40
2019-06-20T18:06:22.297Z,64.40
2019-06-20T18:08:52.027Z,64.50
2019-06-20T18:11:21.621Z,64.80
2019-06-20T18:13:51.314Z,65.10
2019-06-20T18:16:25.053Z,65.50
2019-06-20T18:18:52.385Z,65.50
2019-06-20T18:21:22.074Z,65.50
2019-06-20T18:23:51.840Z,65.80
2019-06-20T18:26:23.038Z,66.00
2019-06-20T18:28:54.940Z,66.20
2019-06-20T18:31:25.686Z,66.20
2019-06-20T18:33:55.843Z,66.30
2019-06-20T18:36:25.328Z,66.80
2019-06-20T18:38:54.988Z,66.80
2019-06-20T18:41:24.525Z,67.10
2019-06-20T18:43:54.259Z,67.20
2019-06-20T18:46:23.913Z,67.60
2019-06-20T18:48:54.130Z,68.00
2019-06-20T18:51:24.008Z,68.30
2019-06-20T18:53:56.057Z,68.70
2019-06-20T18:56:24.962Z,69.00
2019-06-20T18:58:56.315Z,69.60
2019-06-20T19:01:26.586Z,69.30
2019-06-20T19:03:56.485Z,69.70
2019-06-20T19:06:35.495Z,69.80
2019-06-20T19:08:58.624Z,70.20
2019-06-20T19:11:28.168Z,70.40
2019-06-20T19:14:01.097Z,70.50
2019-06-20T19:16:30.683Z,70.80
2019-06-20T19:19:02.753Z,71.10
2019-06-20T19:21:33.268Z,71.50
2019-06-20T19:24:02.999Z,71.60
2019-06-20T19:26:32.930Z,71.80
2019-06-20T19:29:02.602Z,72.50
2019-06-20T19:31:35.270Z,72.20
2019-06-20T19:34:04.947Z,72.70
2019-06-20T19:36:34.616Z,72.60
2019-06-20T19:39:05.753Z,72.70
2019-06-20T19:41:36.835Z,73.00
2019-06-20T19:44:06.948Z,73.10
2019-06-20T19:46:37.168Z,73.30
2019-06-20T19:49:06.992Z,73.20
2019-06-20T19:51:40.712Z,73.40
2019-06-20T19:54:11.431Z,73.70
2019-06-20T19:56:41.730Z,74.10
2019-06-20T19:59:18.226Z,74.30
2019-06-20T20:01:48.300Z,74.60
2019-06-20T20:04:18.294Z,74.60
2019-06-20T20:06:47.932Z,75.00
2019-06-20T20:09:19.672Z,75.00
2019-06-20T20:11:50.090Z,75.10
2019-06-20T20:14:20.077Z,75.50
2019-06-20T20:16:51.273Z,76.00
2019-06-20T20:19:21.914Z,76.30
2019-06-20T20:21:54.110Z,77.10
2019-06-20T20:24:24.053Z,78.00
2019-06-20T20:26:54.317Z,78.00
2019-06-20T20:29:24.213Z,78.00
2019-06-20T20:31:54.149Z,78.70
2019-06-20T20:34:23.759Z,77.70
2019-06-20T20:36:53.516Z,77.90
2019-06-20T20:39:23.152Z,77.90
2019-06-20T20:41:53.713Z,78.10
2019-06-20T20:44:23.383Z,78.30
2019-06-20T20:46:52.838Z,78.50
2019-06-20T20:49:23.691Z,78.80
2019-06-20T20:51:53.428Z,78.80
2019-06-20T20:54:22.982Z,79.10
2019-06-20T20:56:52.660Z,79.50
2019-06-20T20:59:22.460Z,79.40
2019-06-20T21:01:52.063Z,79.90
2019-06-20T21:04:21.895Z,80.50
2019-06-20T21:06:52.116Z,80.10
2019-06-20T21:09:21.892Z,80.20
2019-06-20T21:11:51.690Z,80.30
2019-06-20T21:14:21.316Z,80.30
2019-06-20T21:16:52.081Z,80.50
2019-06-20T21:19:21.752Z,80.40
2019-06-20T21:21:51.426Z,80.50
2019-06-20T21:24:21.209Z,80.80
2019-06-20T21:26:50.923Z,80.70
2019-06-20T21:29:20.515Z,80.70
2019-06-20T21:31:50.143Z,80.40
2019-06-20T21:34:19.824Z,80.40
2019-06-20T21:36:49.586Z,80.50
2019-06-20T21:39:19.351Z,80.80
2019-06-20T21:41:49.075Z,80.30
2019-06-20T21:44:18.674Z,80.50
2019-06-20T21:46:48.285Z,80.60
2019-06-20T21:49:17.780Z,80.60
2019-06-20T21:51:47.403Z,80.80
2019-06-20T21:54:17.057Z,80.60
2019-06-20T21:56:46.658Z,80.60
2019-06-20T21:59:16.232Z,80.30
2019-06-20T22:01:48.420Z,80.20
2019-06-20T22:04:18.495Z,80.30
2019-06-20T22:06:48.160Z,79.80
2019-06-20T22:09:17.996Z,79.50
2019-06-20T22:11:48.191Z,79.50
2019-06-20T22:14:17.967Z,79.80
2019-06-20T22:16:48.268Z,80.50
2019-06-20T22:19:18.070Z,79.90
2019-06-20T22:21:48.249Z,79.60
2019-06-20T22:24:21.250Z,79.70
2019-06-20T22:26:52.980Z,80.20
2019-06-20T22:29:22.835Z,80.50
2019-06-20T22:31:53.198Z,80.70
2019-06-20T22:34:22.822Z,80.80
2019-06-20T22:36:52.670Z,80.80
2019-06-20T22:39:22.330Z,80.80
2019-06-20T22:41:52.042Z,80.70
2019-06-20T22:44:22.901Z,80.70
2019-06-20T22:46:52.794Z,81.00
2019-06-20T22:49:24.928Z,81.00
2019-06-20T22:51:54.473Z,81.40
2019-06-20T22:54:24.062Z,81.60
2019-06-20T22:56:57.287Z,82.60
2019-06-20T22:59:26.829Z,81.80
2019-06-20T23:01:56.551Z,82.00
2019-06-20T23:04:26.079Z,82.10
2019-06-20T23:06:56.964Z,82.20
2019-06-20T23:09:27.508Z,82.40
2019-06-20T23:11:57.241Z,82.50
2019-06-20T23:14:28.139Z,82.80
2019-06-20T23:16:57.663Z,82.50
2019-06-20T23:19:27.290Z,82.70
2019-06-20T23:21:57.138Z,83.00
2019-06-20T23:24:26.737Z,83.50
2019-06-20T23:29:38.189Z,82.50
2019-06-20T23:32:08.932Z,82.30
2019-06-20T23:34:38.534Z,82.30
2019-06-20T23:37:12.538Z,82.40
2019-06-20T23:39:39.401Z,82.30
2019-06-20T23:42:09.050Z,82.30
2019-06-20T23:44:38.599Z,82.40
2019-06-20T23:47:08.116Z,82.60
2019-06-20T23:49:39.612Z,82.60
2019-06-20T23:52:16.563Z,82.70
2019-06-20T23:54:46.180Z,82.80
2019-06-20T23:57:15.782Z,82.60
2019-06-20T23:59:45.379Z,82.70
